Archival Weather

NSFA McMurdo Sound

NSFA McMurdo Sound, Antarctica (NZCM)

Report from: Saturday, April 1, 2023 6:55 PM UTC
Current time: Monday, July 22, 2024 11:20 AM UTC

Current weather – Weather history – Daily summaries
Weather forecast

Temperature-19.8°C (-3.6°F)
Wind chill-28.1°C (-18.6°F)
Dew point-23.5°C (-10.3°F)
Winds 7 kts (3.6 m/s, 8.1 mph) East-Northeast (70°)
Visibility6.2 mi. (10 km)
Clouds Sky clear
Altimeter29.82 in.Hg (1010 mB)
Relative humidity72 %
Density altitude-4,339 ft. (-1,322 m)
Sea-level pressure101.1 kPa (1011 mB, 29.84 in.Hg)
Remarks Fully automated report
Automated weather observing station with precipitation discriminator
Flight conditions Visual Meteorological Conditions
Raw dataNZCM 011855Z AUTO 07007KT 9999 CLR M20/M24 A2982 RMK AO2 SLP105 T11981235
An error has occurred. This application may no longer respond until reloaded. Reload 🗙